createdAt,value
2018-10-09T00:01:30.430Z,13.13
2018-10-09T00:03:37.331Z,17.37
2018-10-09T00:05:54.010Z,8.60
2018-10-09T00:08:03.132Z,9.00
2018-10-09T00:12:25.696Z,7.37
2018-10-09T00:14:31.258Z,9.80
2018-10-09T00:16:36.998Z,9.90
2018-10-09T00:18:42.488Z,8.77
2018-10-09T00:20:48.004Z,6.40
2018-10-09T00:22:53.493Z,9.90
2018-10-09T00:25:00.605Z,6.20
2018-10-09T00:27:11.715Z,16.53
2018-10-09T00:29:18.689Z,8.50
2018-10-09T00:33:54.313Z,6.77
2018-10-09T00:36:01.653Z,9.60
2018-10-09T00:38:20.932Z,11.00
2018-10-09T00:40:33.294Z,8.40
2018-10-09T00:42:44.100Z,6.50
2018-10-09T00:44:50.282Z,6.33
2018-10-09T00:46:56.677Z,5.90
2018-10-09T00:49:04.530Z,7.30
2018-10-09T00:51:31.097Z,6.70
2018-10-09T00:58:22.719Z,8.10
2018-10-09T01:00:47.486Z,9.37
2018-10-09T01:03:10.388Z,4.43
2018-10-09T01:05:20.287Z,7.80
2018-10-09T01:08:06.527Z,9.87
2018-10-09T01:10:23.752Z,5.40
2018-10-09T01:12:36.556Z,4.87
2018-10-09T01:15:00.275Z,5.50
2018-10-09T01:19:32.745Z,4.60
2018-10-09T01:24:05.804Z,4.23
2018-10-09T01:26:15.585Z,3.77
2018-10-09T01:28:30.139Z,5.20
2018-10-09T01:30:47.539Z,5.43
2018-10-09T01:33:06.404Z,4.20
2018-10-09T01:35:22.451Z,4.97
2018-10-09T01:42:14.800Z,4.13
2018-10-09T01:44:23.672Z,5.87
2018-10-09T01:51:10.557Z,5.90
2018-10-09T01:53:21.704Z,4.70
2018-10-09T01:57:55.039Z,5.00
2018-10-09T02:00:08.576Z,3.57
2018-10-09T02:02:18.797Z,4.27
2018-10-09T02:04:29.985Z,4.60
2018-10-09T02:11:43.428Z,4.73
2018-10-09T02:13:50.766Z,4.23
2018-10-09T02:16:01.266Z,4.10
2018-10-09T02:18:20.349Z,3.70
2018-10-09T02:20:28.587Z,4.17
2018-10-09T02:22:37.371Z,4.83
2018-10-09T02:24:48.286Z,4.30
2018-10-09T02:27:01.113Z,6.80
2018-10-09T02:29:10.345Z,3.60
2018-10-09T02:33:30.965Z,4.40
2018-10-09T02:35:40.433Z,3.70
2018-10-09T02:38:04.186Z,3.50
2018-10-09T02:44:49.721Z,4.07
2018-10-09T02:46:56.476Z,5.30
2018-10-09T02:49:10.098Z,5.27
2018-10-09T02:51:23.696Z,3.67
2018-10-09T02:53:35.558Z,4.17
2018-10-09T02:55:44.727Z,4.23
2018-10-09T02:57:57.008Z,4.63
2018-10-09T03:00:07.631Z,3.53
2018-10-09T03:04:52.063Z,4.83
2018-10-09T03:09:23.741Z,4.13
2018-10-09T03:11:34.849Z,4.27
2018-10-09T03:13:43.072Z,3.37
2018-10-09T03:15:57.501Z,3.67
2018-10-09T03:18:06.823Z,3.97
2018-10-09T03:24:52.413Z,4.00
2018-10-09T03:27:07.203Z,3.60
2018-10-09T03:31:29.360Z,3.63
2018-10-09T03:33:53.732Z,4.53
2018-10-09T03:36:10.189Z,5.53
2018-10-09T03:38:30.086Z,4.00
2018-10-09T03:40:59.520Z,4.40
2018-10-09T03:43:13.865Z,3.27
2018-10-09T03:47:59.127Z,3.30
2018-10-09T03:50:10.004Z,4.00
2018-10-09T03:52:22.646Z,3.40
2018-10-09T03:54:34.273Z,5.13
2018-10-09T03:56:51.069Z,3.60
2018-10-09T03:59:02.005Z,3.53
2018-10-09T04:01:23.022Z,4.17
2018-10-09T04:03:31.389Z,3.57
2018-10-09T04:05:41.198Z,4.10
2018-10-09T04:08:03.060Z,3.90
2018-10-09T04:10:14.725Z,4.90
2018-10-09T04:12:24.633Z,3.80
2018-10-09T04:16:55.180Z,4.53
2018-10-09T04:19:03.575Z,3.73
2018-10-09T04:21:15.750Z,3.77
2018-10-09T04:23:26.815Z,4.03
2018-10-09T04:25:41.114Z,3.40
2018-10-09T04:30:10.738Z,4.30
2018-10-09T04:32:32.769Z,3.67
2018-10-09T04:34:46.109Z,3.50
2018-10-09T04:39:23.781Z,4.10
2018-10-09T04:41:31.887Z,3.83
2018-10-09T04:43:41.496Z,4.53
2018-10-09T04:45:47.513Z,3.67
2018-10-09T04:47:56.658Z,4.13
2018-10-09T04:50:07.054Z,3.73
2018-10-09T04:52:25.174Z,5.90
2018-10-09T04:57:09.546Z,3.60
2018-10-09T04:59:21.374Z,4.20
2018-10-09T05:01:29.255Z,3.73
2018-10-09T05:03:36.682Z,3.87
2018-10-09T05:08:33.339Z,3.77
2018-10-09T05:11:00.833Z,4.17
2018-10-09T05:13:31.169Z,5.63
2018-10-09T05:15:40.613Z,4.47
2018-10-09T05:22:47.105Z,3.30
2018-10-09T05:24:59.803Z,3.67
2018-10-09T05:27:10.658Z,12.40
2018-10-09T05:31:39.388Z,5.47
2018-10-09T05:33:48.543Z,4.07
2018-10-09T05:36:02.415Z,3.87
2018-10-09T05:38:18.496Z,6.17
2018-10-09T05:40:26.411Z,4.30
2018-10-09T05:42:44.639Z,3.60
2018-10-09T05:44:51.212Z,4.33
2018-10-09T05:47:03.802Z,3.90
2018-10-09T05:49:14.339Z,3.90
2018-10-09T05:51:28.008Z,4.87
2018-10-09T05:53:37.891Z,4.10
2018-10-09T05:56:01.359Z,4.90
2018-10-09T06:00:23.568Z,5.10
2018-10-09T06:02:31.231Z,4.27
2018-10-09T06:04:37.688Z,4.90
2018-10-09T06:06:52.962Z,4.17
2018-10-09T06:09:11.689Z,4.73
2018-10-09T06:11:17.788Z,5.00
2018-10-09T06:13:27.826Z,4.60
2018-10-09T06:15:37.720Z,4.83
2018-10-09T06:20:13.451Z,4.10
2018-10-09T06:22:26.720Z,4.07
2018-10-09T06:29:26.357Z,4.40
2018-10-09T06:33:47.881Z,4.90
2018-10-09T06:35:56.196Z,4.37
2018-10-09T06:38:03.756Z,5.17
2018-10-09T06:40:11.055Z,4.03
2018-10-09T06:42:18.104Z,4.57
2018-10-09T06:49:07.686Z,6.33
2018-10-09T06:51:16.310Z,5.00
2018-10-09T06:53:22.647Z,5.27
2018-10-09T06:55:29.952Z,5.13
2018-10-09T06:57:38.657Z,5.60
2018-10-09T06:59:46.803Z,4.80
2018-10-09T07:01:59.263Z,4.37
2018-10-09T07:04:05.988Z,4.83
2018-10-09T07:06:15.077Z,4.80
2018-10-09T07:08:21.225Z,5.20
2018-10-09T07:10:28.324Z,5.20
2018-10-09T07:12:39.128Z,5.30
2018-10-09T07:14:46.623Z,5.13
2018-10-09T07:16:54.844Z,4.70
2018-10-09T07:19:02.640Z,5.13
2018-10-09T07:21:12.718Z,5.50
2018-10-09T07:23:20.112Z,5.40
2018-10-09T07:25:36.138Z,5.33
2018-10-09T07:27:47.678Z,5.17
2018-10-09T07:32:24.171Z,5.10
2018-10-09T07:37:02.576Z,4.70
2018-10-09T07:39:10.119Z,5.63
2018-10-09T07:41:21.183Z,5.20
2018-10-09T07:43:26.591Z,5.37
2018-10-09T07:45:36.675Z,5.33
2018-10-09T07:47:44.578Z,5.80
2018-10-09T07:49:51.247Z,4.87
2018-10-09T07:51:57.715Z,5.17
2018-10-09T07:54:07.890Z,5.10
2018-10-09T07:56:15.893Z,5.10
2018-10-09T07:58:22.911Z,5.50
2018-10-09T08:00:33.092Z,5.50
2018-10-09T08:02:43.565Z,4.77
2018-10-09T08:04:56.159Z,5.10
2018-10-09T08:07:03.274Z,5.23
2018-10-09T08:09:12.619Z,5.27
2018-10-09T08:11:19.260Z,4.80
2018-10-09T08:13:29.891Z,4.50
2018-10-09T08:18:01.124Z,9.70
2018-10-09T08:20:10.920Z,5.40
2018-10-09T08:22:19.241Z,4.87
2018-10-09T08:24:25.901Z,6.50
2018-10-09T08:28:52.088Z,5.20
2018-10-09T08:30:57.885Z,6.10
2018-10-09T08:33:03.342Z,5.90
2018-10-09T08:35:09.020Z,5.83
2018-10-09T08:37:15.093Z,11.20
2018-10-09T08:39:21.320Z,68.37
2018-10-09T08:41:27.197Z,20.70
2018-10-09T08:43:32.830Z,13.93
2018-10-09T08:45:38.115Z,14.07
2018-10-09T08:47:44.028Z,13.10
2018-10-09T08:49:49.610Z,12.83
2018-10-09T08:51:54.750Z,12.70
2018-10-09T08:54:00.676Z,12.20
2018-10-09T08:56:06.308Z,11.50
2018-10-09T08:58:13.331Z,12.20
2018-10-09T09:00:18.975Z,12.50
2018-10-09T09:02:24.532Z,11.07
2018-10-09T09:04:30.758Z,11.20
2018-10-09T09:06:38.419Z,10.70
2018-10-09T09:08:43.781Z,11.80
2018-10-09T09:10:48.941Z,10.77
2018-10-09T09:12:54.232Z,11.67
2018-10-09T09:15:00.080Z,11.97
2018-10-09T09:17:05.513Z,10.97
2018-10-09T09:19:10.735Z,11.60
2018-10-09T09:21:16.837Z,11.37
2018-10-09T09:23:23.251Z,11.10
2018-10-09T09:25:29.027Z,10.80
2018-10-09T09:27:35.162Z,11.37
2018-10-09T09:29:40.667Z,11.73
2018-10-09T09:31:46.259Z,10.17
2018-10-09T09:33:51.278Z,10.00
2018-10-09T09:35:56.630Z,14.13
2018-10-09T09:38:02.277Z,11.40
2018-10-09T09:40:07.481Z,9.57
2018-10-09T09:42:13.142Z,10.30
2018-10-09T09:44:18.177Z,11.17
2018-10-09T09:46:23.722Z,10.87
2018-10-09T09:48:28.923Z,10.30
2018-10-09T09:50:34.683Z,10.23
2018-10-09T09:52:40.971Z,10.63
2018-10-09T09:54:46.658Z,11.17
2018-10-09T09:56:52.080Z,10.87
2018-10-09T09:58:58.120Z,10.10
2018-10-09T10:01:07.315Z,10.80
2018-10-09T10:03:12.654Z,11.70
2018-10-09T10:05:17.757Z,10.53
2018-10-09T10:07:24.817Z,10.67
2018-10-09T10:09:30.294Z,10.43
2018-10-09T10:11:35.542Z,10.77
2018-10-09T10:13:41.219Z,10.17
2018-10-09T10:15:47.137Z,10.53
2018-10-09T10:17:52.648Z,11.53
2018-10-09T10:19:58.193Z,11.87
2018-10-09T10:22:04.935Z,10.80
2018-10-09T10:24:10.121Z,9.00
2018-10-09T10:26:16.141Z,11.70
2018-10-09T10:28:21.565Z,11.27
2018-10-09T10:30:27.947Z,11.10
2018-10-09T10:32:33.351Z,10.67
2018-10-09T10:34:39.090Z,10.17
2018-10-09T10:36:44.837Z,11.07
2018-10-09T10:38:51.113Z,9.93
2018-10-09T10:40:56.334Z,9.73
2018-10-09T10:43:01.663Z,11.30
2018-10-09T10:45:07.285Z,10.20
2018-10-09T10:47:14.318Z,10.57
2018-10-09T10:49:21.257Z,10.13
2018-10-09T10:51:27.322Z,9.63
2018-10-09T10:53:33.727Z,9.90
2018-10-09T10:55:39.025Z,10.10
2018-10-09T11:00:09.591Z,9.37
2018-10-09T11:02:14.968Z,10.87
2018-10-09T11:04:20.586Z,10.13
2018-10-09T11:06:26.268Z,9.97
2018-10-09T11:08:31.507Z,9.33
2018-10-09T11:10:37.166Z,9.70
2018-10-09T11:12:42.811Z,9.20
2018-10-09T11:14:48.018Z,9.20
2018-10-09T11:16:53.763Z,9.03
2018-10-09T11:18:59.136Z,8.83
2018-10-09T11:21:04.731Z,9.30
2018-10-09T11:23:10.742Z,9.10
2018-10-09T11:25:16.663Z,11.33
2018-10-09T11:27:22.673Z,8.77
2018-10-09T11:29:28.269Z,8.93
2018-10-09T11:31:34.169Z,9.17
2018-10-09T11:33:39.550Z,7.90
2018-10-09T11:35:45.555Z,9.33
2018-10-09T11:37:51.123Z,8.17
2018-10-09T11:39:56.373Z,8.70
2018-10-09T11:42:01.905Z,8.13
2018-10-09T11:44:07.223Z,8.40
2018-10-09T11:46:12.567Z,8.80
2018-10-09T11:48:18.053Z,8.77
2018-10-09T11:50:24.281Z,10.00
2018-10-09T11:52:31.006Z,9.63
2018-10-09T11:54:36.876Z,8.70
2018-10-09T11:56:42.223Z,7.70
2018-10-09T11:58:51.713Z,9.10
2018-10-09T12:00:59.174Z,8.60
2018-10-09T12:03:04.927Z,8.20
2018-10-09T12:05:11.127Z,8.40
2018-10-09T12:07:16.544Z,9.57
2018-10-09T12:09:22.273Z,9.10
2018-10-09T12:11:28.225Z,8.73
2018-10-09T12:13:33.684Z,8.53
2018-10-09T12:15:39.054Z,9.00
2018-10-09T12:17:44.514Z,8.30
2018-10-09T12:19:49.885Z,9.57
2018-10-09T12:21:55.282Z,8.40
2018-10-09T12:24:00.990Z,8.93
2018-10-09T12:26:06.696Z,9.37
2018-10-09T12:28:11.954Z,10.13
2018-10-09T12:30:17.432Z,8.40
2018-10-09T12:32:22.849Z,7.53
2018-10-09T12:34:28.506Z,9.07
2018-10-09T12:36:33.454Z,8.50
2018-10-09T12:38:39.612Z,9.00
2018-10-09T12:40:45.265Z,9.87
2018-10-09T12:42:50.850Z,9.20
2018-10-09T12:44:56.160Z,9.07
2018-10-09T12:47:01.206Z,9.83
2018-10-09T12:49:07.457Z,8.90
2018-10-09T12:51:13.291Z,8.63
2018-10-09T12:53:18.877Z,9.67
2018-10-09T12:55:24.466Z,10.83
2018-10-09T12:57:29.741Z,10.03
2018-10-09T12:59:36.274Z,8.27
2018-10-09T13:01:42.312Z,9.00
2018-10-09T13:03:48.432Z,10.03
2018-10-09T13:05:54.166Z,10.37
2018-10-09T13:07:59.454Z,49.10
2018-10-09T13:10:05.077Z,225.30
2018-10-09T13:12:11.218Z,924.43
2018-10-09T13:14:17.028Z,1471.83
2018-10-09T13:16:22.543Z,1445.70
2018-10-09T13:18:28.198Z,959.00
2018-10-09T13:20:33.933Z,853.90
2018-10-09T13:22:39.467Z,820.33
2018-10-09T13:24:45.072Z,850.43
2018-10-09T13:26:50.232Z,834.63
2018-10-09T13:28:56.544Z,815.87
2018-10-09T13:31:02.112Z,783.53
2018-10-09T13:33:07.729Z,754.37
2018-10-09T13:35:13.090Z,757.73
2018-10-09T13:37:18.648Z,754.93
2018-10-09T13:39:24.395Z,749.97
2018-10-09T13:41:30.089Z,719.57
2018-10-09T13:43:35.425Z,685.33
2018-10-09T13:45:41.115Z,690.27
2018-10-09T13:47:47.270Z,665.43
2018-10-09T13:49:53.386Z,646.53
2018-10-09T13:51:59.969Z,619.47
2018-10-09T13:54:05.524Z,613.87
2018-10-09T13:56:10.885Z,584.07
2018-10-09T13:58:16.295Z,476.53
2018-10-09T14:00:21.202Z,387.63
2018-10-09T14:02:26.892Z,389.83
2018-10-09T14:04:32.406Z,353.53
2018-10-09T14:06:37.454Z,352.30
2018-10-09T14:08:44.619Z,341.27
2018-10-09T14:10:50.036Z,341.63
2018-10-09T14:12:55.201Z,322.57
2018-10-09T14:15:00.513Z,324.33
2018-10-09T14:17:05.804Z,323.00
2018-10-09T14:19:11.724Z,325.87
2018-10-09T14:21:17.417Z,292.03
2018-10-09T14:23:22.835Z,282.23
2018-10-09T14:25:28.342Z,267.10
2018-10-09T14:27:33.577Z,276.10
2018-10-09T14:29:39.176Z,263.83
2018-10-09T14:31:44.602Z,256.40
2018-10-09T14:33:50.127Z,246.43
2018-10-09T14:35:55.451Z,238.73
2018-10-09T14:38:01.035Z,225.00
2018-10-09T14:40:06.673Z,208.37
2018-10-09T14:42:12.137Z,196.40
2018-10-09T14:44:17.450Z,195.67
2018-10-09T14:46:22.697Z,182.77
2018-10-09T14:48:28.599Z,173.47
2018-10-09T14:50:34.669Z,169.77
2018-10-09T14:52:40.055Z,173.77
2018-10-09T14:54:45.307Z,162.93
2018-10-09T14:56:50.415Z,162.53
2018-10-09T14:58:55.746Z,150.90
2018-10-09T15:01:01.078Z,150.10
2018-10-09T15:03:06.728Z,152.23
2018-10-09T15:05:12.779Z,143.17
2018-10-09T15:07:19.779Z,138.13
2018-10-09T15:09:25.096Z,135.27
2018-10-09T15:11:30.863Z,125.53
2018-10-09T15:13:36.480Z,124.63
2018-10-09T15:15:41.796Z,121.90
2018-10-09T15:17:47.168Z,124.07
2018-10-09T15:19:52.510Z,116.37
2018-10-09T15:22:00.136Z,120.50
2018-10-09T15:24:05.734Z,113.97
2018-10-09T15:26:11.317Z,109.37
2018-10-09T15:28:16.658Z,100.90
2018-10-09T15:30:21.888Z,102.23
2018-10-09T15:32:27.289Z,101.77
2018-10-09T15:34:32.917Z,97.03
2018-10-09T15:36:38.223Z,100.50
2018-10-09T15:38:43.978Z,92.73
2018-10-09T15:40:49.098Z,90.60
2018-10-09T15:42:54.925Z,89.30
2018-10-09T15:45:00.125Z,82.40
2018-10-09T15:47:06.063Z,78.63
2018-10-09T15:49:11.469Z,80.07
2018-10-09T15:51:16.931Z,77.73
2018-10-09T15:53:22.275Z,70.80
2018-10-09T15:55:27.690Z,72.97
2018-10-09T15:57:33.092Z,68.03
2018-10-09T15:59:38.339Z,69.03
2018-10-09T16:01:43.933Z,67.17
2018-10-09T16:03:48.976Z,65.00
2018-10-09T16:05:54.430Z,66.07
2018-10-09T16:08:00.131Z,66.90
2018-10-09T16:10:05.754Z,66.70
2018-10-09T16:12:10.920Z,64.50
2018-10-09T16:14:16.697Z,64.37
2018-10-09T16:16:21.989Z,61.97
2018-10-09T16:18:27.332Z,60.70
2018-10-09T16:20:32.565Z,59.03
2018-10-09T16:22:38.031Z,56.67
2018-10-09T16:24:43.338Z,54.83
2018-10-09T16:26:48.512Z,54.87
2018-10-09T16:28:54.030Z,55.50
2018-10-09T16:30:59.121Z,52.40
2018-10-09T16:33:04.813Z,49.97
2018-10-09T16:35:10.054Z,51.77
2018-10-09T16:37:15.077Z,49.90
2018-10-09T16:39:24.426Z,47.97
2018-10-09T16:41:30.375Z,50.93
2018-10-09T16:43:35.868Z,48.70
2018-10-09T16:45:41.347Z,45.77
2018-10-09T16:47:46.671Z,44.87
2018-10-09T16:49:52.511Z,47.10
2018-10-09T16:51:58.321Z,43.73
2018-10-09T16:54:03.397Z,42.00
2018-10-09T16:56:08.944Z,42.30
2018-10-09T16:58:14.321Z,38.90
2018-10-09T17:00:19.631Z,38.90
2018-10-09T17:02:25.280Z,40.23
2018-10-09T17:07:18.803Z,40.80
2018-10-09T17:09:24.800Z,40.67
2018-10-09T17:11:31.236Z,36.83
2018-10-09T17:13:37.184Z,38.63
2018-10-09T17:15:42.758Z,37.87
2018-10-09T17:17:48.975Z,38.13
2018-10-09T17:19:56.794Z,37.33
2018-10-09T17:22:02.784Z,38.17
2018-10-09T17:24:08.683Z,37.50
2018-10-09T17:26:14.290Z,38.13
2018-10-09T17:28:22.404Z,36.90
2018-10-09T17:30:28.307Z,37.70
2018-10-09T17:32:33.784Z,35.70
2018-10-09T17:34:39.978Z,37.03
2018-10-09T17:36:45.895Z,35.17
2018-10-09T17:38:53.929Z,34.33
2018-10-09T17:40:59.748Z,32.17
2018-10-09T17:43:05.669Z,35.10
2018-10-09T17:45:12.070Z,35.03
2018-10-09T17:47:17.820Z,33.40
2018-10-09T17:49:23.732Z,34.07
2018-10-09T17:51:29.163Z,34.87
2018-10-09T17:53:35.040Z,34.03
2018-10-09T17:55:41.063Z,33.50
2018-10-09T17:57:46.581Z,33.30
2018-10-09T17:59:52.254Z,33.37
2018-10-09T18:01:57.880Z,31.53
2018-10-09T18:04:03.521Z,30.80
2018-10-09T18:06:09.054Z,31.57
2018-10-09T18:08:14.930Z,31.37
2018-10-09T18:10:21.514Z,32.70
2018-10-09T18:12:27.888Z,30.53
2018-10-09T18:14:33.657Z,31.23
2018-10-09T18:16:39.587Z,30.30
2018-10-09T18:18:45.195Z,30.67
2018-10-09T18:20:50.977Z,31.20
2018-10-09T18:22:56.705Z,30.60
2018-10-09T18:25:02.477Z,30.17
2018-10-09T18:27:08.579Z,29.67
2018-10-09T18:29:14.234Z,28.67
2018-10-09T18:31:20.144Z,32.30
2018-10-09T18:33:25.743Z,29.40
2018-10-09T18:35:31.501Z,32.00
2018-10-09T18:37:37.118Z,30.03
2018-10-09T18:39:42.904Z,30.23
2018-10-09T18:41:49.511Z,30.90
2018-10-09T18:43:55.571Z,30.43
2018-10-09T18:46:01.276Z,30.07
2018-10-09T18:48:07.024Z,28.57
2018-10-09T18:50:13.778Z,27.03
2018-10-09T18:52:20.154Z,28.17
2018-10-09T18:54:26.325Z,27.40
2018-10-09T18:56:32.032Z,27.13
2018-10-09T18:58:37.564Z,25.40
2018-10-09T19:00:43.436Z,26.13
2018-10-09T19:02:49.550Z,24.80
2018-10-09T19:04:55.653Z,24.27
2018-10-09T19:07:00.922Z,24.60
2018-10-09T19:09:08.050Z,26.77
2018-10-09T19:11:13.621Z,25.27
2018-10-09T19:13:18.968Z,22.53
2018-10-09T19:15:24.247Z,24.27
2018-10-09T19:17:29.747Z,21.97
2018-10-09T19:19:35.096Z,21.33
2018-10-09T19:21:40.693Z,22.57
2018-10-09T19:23:46.567Z,22.70
2018-10-09T19:25:52.574Z,20.40
2018-10-09T19:27:58.472Z,22.60
2018-10-09T19:30:04.415Z,22.07
2018-10-09T19:32:10.099Z,21.40
2018-10-09T19:34:15.185Z,21.40
2018-10-09T19:36:21.288Z,19.60
2018-10-09T19:38:27.305Z,18.50
2018-10-09T19:40:32.885Z,17.90
2018-10-09T19:42:38.997Z,19.10
2018-10-09T19:44:44.656Z,18.87
2018-10-09T19:46:51.000Z,17.73
2018-10-09T19:48:56.999Z,18.33
2018-10-09T19:51:03.629Z,17.30
2018-10-09T19:53:10.024Z,16.90
2018-10-09T19:55:15.721Z,18.33
2018-10-09T19:57:21.364Z,18.10
2018-10-09T19:59:26.965Z,18.13
2018-10-09T20:01:33.050Z,16.43
2018-10-09T20:03:38.696Z,17.97
2018-10-09T20:05:44.643Z,16.60
2018-10-09T20:07:50.039Z,16.30
2018-10-09T20:09:55.760Z,16.37
2018-10-09T20:12:01.571Z,15.63
2018-10-09T20:14:07.486Z,15.70
2018-10-09T20:16:13.431Z,16.27
2018-10-09T20:18:19.006Z,15.43
2018-10-09T20:20:24.789Z,16.27
2018-10-09T20:22:30.364Z,14.60
2018-10-09T20:24:36.411Z,15.37
2018-10-09T20:26:42.192Z,15.00
2018-10-09T20:28:48.070Z,15.97
2018-10-09T20:30:53.997Z,15.57
2018-10-09T20:32:59.896Z,15.87
2018-10-09T20:35:06.185Z,15.27
2018-10-09T20:37:12.125Z,13.37
2018-10-09T20:39:17.792Z,15.37
2018-10-09T20:41:23.951Z,12.97
2018-10-09T20:43:29.575Z,15.67
2018-10-09T20:45:35.897Z,13.57
2018-10-09T20:47:47.431Z,14.07
2018-10-09T20:49:53.216Z,14.07
2018-10-09T20:51:58.868Z,13.80
2018-10-09T20:54:04.563Z,13.77
2018-10-09T20:56:10.103Z,13.37
2018-10-09T20:58:15.621Z,12.50
2018-10-09T21:00:21.780Z,12.00
2018-10-09T21:02:27.514Z,12.93
2018-10-09T21:04:33.751Z,13.27
2018-10-09T21:06:39.775Z,12.33
2018-10-09T21:08:45.984Z,11.97
2018-10-09T21:10:52.194Z,12.37
2018-10-09T21:12:57.718Z,10.83
2018-10-09T21:15:03.356Z,12.03
2018-10-09T21:17:09.189Z,13.47
2018-10-09T21:19:16.114Z,11.20
2018-10-09T21:21:22.161Z,11.53
2018-10-09T21:23:28.792Z,10.93
2018-10-09T21:25:35.058Z,11.70
2018-10-09T21:27:41.565Z,12.63
2018-10-09T21:29:47.981Z,13.10
2018-10-09T21:31:53.541Z,11.90
2018-10-09T21:33:59.403Z,10.73
2018-10-09T21:36:05.294Z,12.07
2018-10-09T21:38:11.463Z,9.70
2018-10-09T21:40:17.492Z,10.10
2018-10-09T21:42:23.648Z,10.93
2018-10-09T21:44:29.958Z,10.53
2018-10-09T21:46:39.559Z,22.87
2018-10-09T21:48:45.281Z,24.03
2018-10-09T21:50:53.032Z,18.00
2018-10-09T21:55:08.664Z,23.00
2018-10-09T21:57:14.582Z,27.83
2018-10-09T21:59:20.691Z,20.77
2018-10-09T22:01:26.421Z,19.40
2018-10-09T22:03:32.443Z,23.40
2018-10-09T22:05:38.682Z,21.60
2018-10-09T22:07:44.486Z,21.00
2018-10-09T22:09:50.524Z,20.83
2018-10-09T22:11:56.626Z,18.50
2018-10-09T22:14:02.234Z,16.67
2018-10-09T22:16:10.025Z,15.50
2018-10-09T22:18:16.060Z,14.90
2018-10-09T22:20:21.653Z,18.70
2018-10-09T22:22:27.838Z,15.03
2018-10-09T22:24:33.887Z,14.80
2018-10-09T22:26:46.796Z,14.53
2018-10-09T22:28:52.531Z,19.40
2018-10-09T22:30:58.410Z,18.07
2018-10-09T22:33:04.340Z,12.20
2018-10-09T22:35:10.282Z,14.00
2018-10-09T22:37:16.410Z,15.70
2018-10-09T22:39:22.570Z,12.60
2018-10-09T22:41:28.294Z,11.10
2018-10-09T22:43:33.553Z,11.60
2018-10-09T22:45:39.316Z,15.40
2018-10-09T22:47:45.032Z,11.97
2018-10-09T22:49:51.116Z,12.13
2018-10-09T22:51:57.059Z,12.83
2018-10-09T22:54:02.636Z,31.20
2018-10-09T22:56:08.965Z,17.73
2018-10-09T22:58:14.755Z,25.27
2018-10-09T23:00:20.403Z,12.63
2018-10-09T23:02:26.253Z,83.27
2018-10-09T23:04:32.331Z,244.57
2018-10-09T23:06:38.290Z,480.27
2018-10-09T23:08:45.386Z,117.87
2018-10-09T23:10:50.714Z,180.07
2018-10-09T23:12:57.219Z,79.80
2018-10-09T23:15:04.079Z,91.70
2018-10-09T23:17:09.508Z,92.03
2018-10-09T23:19:15.935Z,88.43
2018-10-09T23:21:22.275Z,90.90
2018-10-09T23:23:36.263Z,90.07
2018-10-09T23:25:43.816Z,87.70
2018-10-09T23:27:49.728Z,88.33
2018-10-09T23:29:55.979Z,80.70
2018-10-09T23:32:02.362Z,84.07
2018-10-09T23:34:10.569Z,85.00
2018-10-09T23:36:16.283Z,82.97
2018-10-09T23:38:21.988Z,79.07
2018-10-09T23:40:28.071Z,80.37
2018-10-09T23:42:37.700Z,75.27
2018-10-09T23:44:44.130Z,77.90
2018-10-09T23:46:50.096Z,80.70
2018-10-09T23:48:58.441Z,74.83
2018-10-09T23:51:04.536Z,73.47
2018-10-09T23:53:10.506Z,68.67
2018-10-09T23:55:16.392Z,72.17
2018-10-09T23:57:22.273Z,66.67
2018-10-09T23:59:31.044Z,65.70
